sensor_id;sensor_type;location;lat;lon;timestamp;temperature;humidity
1956;DHT22;978;48.314;11.562;2023-02-26T16:41:30;19.70;60.80
1956;DHT22;978;48.314;11.562;2023-02-26T16:44:02;19.70;60.70
1956;DHT22;978;48.314;11.562;2023-02-26T16:46:37;19.70;60.80
1956;DHT22;978;48.314;11.562;2023-02-26T16:49:12;19.70;60.80
1956;DHT22;978;48.314;11.562;2023-02-26T16:51:42;19.70;60.80
1956;DHT22;978;48.314;11.562;2023-02-26T16:54:15;19.70;60.80
1956;DHT22;978;48.314;11.562;2023-02-26T16:56:49;19.70;61.20
1956;DHT22;978;48.314;11.562;2023-02-26T16:59:20;19.70;60.80
1956;DHT22;978;48.314;11.562;2023-02-26T17:01:51;19.70;61.20
1956;DHT22;978;48.314;11.562;2023-02-26T17:04:22;19.70;61.40
1956;DHT22;978;48.314;11.562;2023-02-26T17:06:50;19.70;61.60
1956;DHT22;978;48.314;11.562;2023-02-26T17:09:35;19.70;62.20
1956;DHT22;978;48.314;11.562;2023-02-26T17:12:12;19.70;61.90
1956;DHT22;978;48.314;11.562;2023-02-26T17:14:46;19.70;61.80
1956;DHT22;978;48.314;11.562;2023-02-26T17:17:15;19.70;61.60
1956;DHT22;978;48.314;11.562;2023-02-26T17:19:43;19.70;61.60
1956;DHT22;978;48.314;11.562;2023-02-26T17:22:15;19.70;61.50
1956;DHT22;978;48.314;11.562;2023-02-26T17:24:43;19.70;61.50
1956;DHT22;978;48.314;11.562;2023-02-26T17:27:15;19.70;61.50
1956;DHT22;978;48.314;11.562;2023-02-26T17:29:45;19.70;61.40
1956;DHT22;978;48.314;11.562;2023-02-26T17:32:19;19.70;62.00
1956;DHT22;978;48.314;11.562;2023-02-26T17:34:46;19.70;61.90
1956;DHT22;978;48.314;11.562;2023-02-26T17:37:14;19.70;61.80
1956;DHT22;978;48.314;11.562;2023-02-26T17:39:42;19.70;62.00
1956;DHT22;978;48.314;11.562;2023-02-26T17:42:10;19.70;62.00
1956;DHT22;978;48.314;11.562;2023-02-26T17:44:39;19.70;61.90
1956;DHT22;978;48.314;11.562;2023-02-26T17:47:12;19.70;61.90
1956;DHT22;978;48.314;11.562;2023-02-26T17:49:40;19.70;61.80
1956;DHT22;978;48.314;11.562;2023-02-26T17:52:07;19.70;61.70
1956;DHT22;978;48.314;11.562;2023-02-26T17:54:35;19.70;61.70
1956;DHT22;978;48.314;11.562;2023-02-26T17:57:03;19.70;61.60
1956;DHT22;978;48.314;11.562;2023-02-26T17:59:30;19.70;61.50
1956;DHT22;978;48.314;11.562;2023-02-26T18:01:59;19.70;61.40
1956;DHT22;978;48.314;11.562;2023-02-26T18:04:25;19.70;61.30
1956;DHT22;978;48.314;11.562;2023-02-26T18:06:53;19.70;61.20
1956;DHT22;978;48.314;11.562;2023-02-26T18:09:23;19.70;61.30
1956;DHT22;978;48.314;11.562;2023-02-26T18:11:49;19.70;61.20
1956;DHT22;978;48.314;11.562;2023-02-26T18:14:16;19.70;61.30
1956;DHT22;978;48.314;11.562;2023-02-26T18:16:43;19.70;61.30
1956;DHT22;978;48.314;11.562;2023-02-26T18:19:13;19.60;61.20
1956;DHT22;978;48.314;11.562;2023-02-26T18:21:40;19.70;61.20
1956;DHT22;978;48.314;11.562;2023-02-26T18:24:07;19.70;61.20
1956;DHT22;978;48.314;11.562;2023-02-26T18:26:34;19.70;61.10
1956;DHT22;978;48.314;11.562;2023-02-26T18:29:02;19.70;61.10
1956;DHT22;978;48.314;11.562;2023-02-26T18:31:31;19.70;61.10
1956;DHT22;978;48.314;11.562;2023-02-26T18:34:03;19.70;61.00
1956;DHT22;978;48.314;11.562;2023-02-26T18:36:35;19.70;60.90
1956;DHT22;978;48.314;11.562;2023-02-26T18:39:05;19.70;60.90
1956;DHT22;978;48.314;11.562;2023-02-26T18:41:33;19.70;60.80
1956;DHT22;978;48.314;11.562;2023-02-26T18:44:00;19.70;60.80
1956;DHT22;978;48.314;11.562;2023-02-26T18:46:27;19.70;60.70
1956;DHT22;978;48.314;11.562;2023-02-26T18:48:54;19.60;60.60
1956;DHT22;978;48.314;11.562;2023-02-26T18:51:21;19.70;60.60
1956;DHT22;978;48.314;11.562;2023-02-26T18:53:50;19.70;60.50
1956;DHT22;978;48.314;11.562;2023-02-26T18:56:17;19.70;60.50
1956;DHT22;978;48.314;11.562;2023-02-26T18:58:43;19.70;60.50
1956;DHT22;978;48.314;11.562;2023-02-26T19:01:10;19.70;60.40
1956;DHT22;978;48.314;11.562;2023-02-26T19:03:37;19.70;60.40
1956;DHT22;978;48.314;11.562;2023-02-26T19:06:05;19.70;60.40
1956;DHT22;978;48.314;11.562;2023-02-26T19:08:33;19.70;60.40
1956;DHT22;978;48.314;11.562;2023-02-26T19:11:01;19.70;60.30
1956;DHT22;978;48.314;11.562;2023-02-26T19:13:28;19.70;60.30
1956;DHT22;978;48.314;11.562;2023-02-26T19:15:55;19.70;60.20
1956;DHT22;978;48.314;11.562;2023-02-26T19:18:22;19.70;60.20
1956;DHT22;978;48.314;11.562;2023-02-26T19:20:49;19.70;60.30
1956;DHT22;978;48.314;11.562;2023-02-26T19:23:16;19.70;60.80
1956;DHT22;978;48.314;11.562;2023-02-26T19:25:43;19.60;63.10
1956;DHT22;978;48.314;11.562;2023-02-26T19:28:11;19.60;62.80
1956;DHT22;978;48.314;11.562;2023-02-26T19:30:38;19.60;62.80
1956;DHT22;978;48.314;11.562;2023-02-26T19:33:05;19.60;62.70
1956;DHT22;978;48.314;11.562;2023-02-26T19:35:32;19.60;62.60
1956;DHT22;978;48.314;11.562;2023-02-26T19:37:59;19.60;62.60
1956;DHT22;978;48.314;11.562;2023-02-26T19:40:26;19.60;62.60
1956;DHT22;978;48.314;11.562;2023-02-26T19:42:53;19.60;62.50
1956;DHT22;978;48.314;11.562;2023-02-26T19:45:24;19.60;61.60
1956;DHT22;978;48.314;11.562;2023-02-26T19:47:51;19.70;61.60
1956;DHT22;978;48.314;11.562;2023-02-26T19:50:18;19.70;61.20
1956;DHT22;978;48.314;11.562;2023-02-26T19:52:47;19.70;61.10
1956;DHT22;978;48.314;11.562;2023-02-26T19:55:14;19.70;61.20
1956;DHT22;978;48.314;11.562;2023-02-26T19:57:41;19.70;61.40
1956;DHT22;978;48.314;11.562;2023-02-26T20:00:09;19.80;61.80
1956;DHT22;978;48.314;11.562;2023-02-26T20:02:38;19.80;62.50
1956;DHT22;978;48.314;11.562;2023-02-26T20:05:06;19.70;63.30
1956;DHT22;978;48.314;11.562;2023-02-26T20:07:36;19.80;63.90
1956;DHT22;978;48.314;11.562;2023-02-26T20:10:03;19.80;63.90
1956;DHT22;978;48.314;11.562;2023-02-26T20:12:31;19.80;64.60
1956;DHT22;978;48.314;11.562;2023-02-26T20:14:57;19.80;64.80
1956;DHT22;978;48.314;11.562;2023-02-26T20:17:24;19.80;65.50
1956;DHT22;978;48.314;11.562;2023-02-26T20:19:52;19.80;66.30
1956;DHT22;978;48.314;11.562;2023-02-26T20:22:19;19.80;67.30
1956;DHT22;978;48.314;11.562;2023-02-26T20:24:47;19.80;67.20
1956;DHT22;978;48.314;11.562;2023-02-26T20:27:15;19.80;68.80
1956;DHT22;978;48.314;11.562;2023-02-26T20:29:42;19.80;68.90
1956;DHT22;978;48.314;11.562;2023-02-26T20:32:09;19.80;69.20
1956;DHT22;978;48.314;11.562;2023-02-26T20:34:36;19.80;70.60
1956;DHT22;978;48.314;11.562;2023-02-26T20:37:04;19.80;71.90
1956;DHT22;978;48.314;11.562;2023-02-26T20:39:31;19.90;73.70
1956;DHT22;978;48.314;11.562;2023-02-26T20:41:57;19.90;70.90
1956;DHT22;978;48.314;11.562;2023-02-26T20:44:24;19.80;68.40
1956;DHT22;978;48.314;11.562;2023-02-26T20:46:51;19.80;68.40
1956;DHT22;978;48.314;11.562;2023-02-26T20:49:19;19.80;69.50
1956;DHT22;978;48.314;11.562;2023-02-26T20:51:46;19.80;70.20
1956;DHT22;978;48.314;11.562;2023-02-26T20:54:16;19.80;70.60
1956;DHT22;978;48.314;11.562;2023-02-26T20:56:44;19.80;70.50
1956;DHT22;978;48.314;11.562;2023-02-26T20:59:13;19.80;70.50
1956;DHT22;978;48.314;11.562;2023-02-26T21:01:40;19.80;70.40
1956;DHT22;978;48.314;11.562;2023-02-26T21:04:08;19.80;70.30
1956;DHT22;978;48.314;11.562;2023-02-26T21:06:35;19.80;70.00
1956;DHT22;978;48.314;11.562;2023-02-26T21:09:03;19.80;69.70
1956;DHT22;978;48.314;11.562;2023-02-26T21:11:32;19.80;69.10
1956;DHT22;978;48.314;11.562;2023-02-26T21:13:59;19.80;67.20
1956;DHT22;978;48.314;11.562;2023-02-26T21:16:27;19.80;66.50
1956;DHT22;978;48.314;11.562;2023-02-26T21:18:55;19.80;65.90
1956;DHT22;978;48.314;11.562;2023-02-26T21:21:22;19.80;65.60
1956;DHT22;978;48.314;11.562;2023-02-26T21:23:49;19.80;65.60
1956;DHT22;978;48.314;11.562;2023-02-26T21:26:17;19.80;66.20
1956;DHT22;978;48.314;11.562;2023-02-26T21:28:46;19.80;66.60
1956;DHT22;978;48.314;11.562;2023-02-26T21:31:13;19.70;66.90
1956;DHT22;978;48.314;11.562;2023-02-26T21:33:40;19.80;67.00
1956;DHT22;978;48.314;11.562;2023-02-26T21:36:07;19.70;66.90
1956;DHT22;978;48.314;11.562;2023-02-26T21:38:36;19.70;66.60
1956;DHT22;978;48.314;11.562;2023-02-26T21:41:03;19.70;66.40
1956;DHT22;978;48.314;11.562;2023-02-26T21:43:30;19.70;66.30
1956;DHT22;978;48.314;11.562;2023-02-26T21:45:58;19.80;66.20
1956;DHT22;978;48.314;11.562;2023-02-26T21:48:24;19.70;66.00
1956;DHT22;978;48.314;11.562;2023-02-26T21:50:51;19.70;66.00
1956;DHT22;978;48.314;11.562;2023-02-26T21:53:20;19.70;65.70
1956;DHT22;978;48.314;11.562;2023-02-26T21:55:47;19.70;65.60
1956;DHT22;978;48.314;11.562;2023-02-26T21:58:14;19.70;65.70
1956;DHT22;978;48.314;11.562;2023-02-26T22:00:41;19.70;65.50
1956;DHT22;978;48.314;11.562;2023-02-26T22:03:09;19.70;65.30
1956;DHT22;978;48.314;11.562;2023-02-26T22:05:36;19.70;65.20
1956;DHT22;978;48.314;11.562;2023-02-26T22:08:02;19.70;65.10
1956;DHT22;978;48.314;11.562;2023-02-26T22:10:29;19.70;64.90
1956;DHT22;978;48.314;11.562;2023-02-26T22:12:56;19.70;64.90
1956;DHT22;978;48.314;11.562;2023-02-26T22:15:23;19.70;64.70
1956;DHT22;978;48.314;11.562;2023-02-26T22:17:49;19.70;64.70
1956;DHT22;978;48.314;11.562;2023-02-26T22:20:18;19.70;64.60
1956;DHT22;978;48.314;11.562;2023-02-26T22:22:44;19.70;64.60
1956;DHT22;978;48.314;11.562;2023-02-26T22:25:12;19.70;64.50
1956;DHT22;978;48.314;11.562;2023-02-26T22:27:38;19.70;64.50
1956;DHT22;978;48.314;11.562;2023-02-26T22:30:06;19.70;64.50
1956;DHT22;978;48.314;11.562;2023-02-26T22:32:33;19.70;64.40
1956;DHT22;978;48.314;11.562;2023-02-26T22:35:00;19.70;65.00
1956;DHT22;978;48.314;11.562;2023-02-26T22:37:28;19.70;64.40
1956;DHT22;978;48.314;11.562;2023-02-26T22:39:54;19.70;64.40
1956;DHT22;978;48.314;11.562;2023-02-26T22:42:22;19.70;64.40
1956;DHT22;978;48.314;11.562;2023-02-26T22:44:48;19.70;64.30
1956;DHT22;978;48.314;11.562;2023-02-26T22:47:15;19.70;64.40
1956;DHT22;978;48.314;11.562;2023-02-26T22:49:42;19.70;64.30
1956;DHT22;978;48.314;11.562;2023-02-26T22:52:09;19.70;64.30
1956;DHT22;978;48.314;11.562;2023-02-26T22:54:37;19.70;64.20
1956;DHT22;978;48.314;11.562;2023-02-26T22:57:04;19.70;64.20
1956;DHT22;978;48.314;11.562;2023-02-26T22:59:32;19.70;64.10
1956;DHT22;978;48.314;11.562;2023-02-26T23:01:58;19.70;64.00
1956;DHT22;978;48.314;11.562;2023-02-26T23:04:25;19.70;64.00
1956;DHT22;978;48.314;11.562;2023-02-26T23:06:52;19.70;63.90
1956;DHT22;978;48.314;11.562;2023-02-26T23:09:19;19.70;63.90
1956;DHT22;978;48.314;11.562;2023-02-26T23:11:47;19.70;63.90
1956;DHT22;978;48.314;11.562;2023-02-26T23:14:14;19.70;63.80
1956;DHT22;978;48.314;11.562;2023-02-26T23:16:41;19.70;63.70
1956;DHT22;978;48.314;11.562;2023-02-26T23:19:08;19.70;64.20
1956;DHT22;978;48.314;11.562;2023-02-26T23:21:35;19.70;63.50
1956;DHT22;978;48.314;11.562;2023-02-26T23:24:02;19.70;63.50
1956;DHT22;978;48.314;11.562;2023-02-26T23:26:29;19.70;63.50
1956;DHT22;978;48.314;11.562;2023-02-26T23:28:57;19.70;63.40
1956;DHT22;978;48.314;11.562;2023-02-26T23:31:24;19.70;63.40
1956;DHT22;978;48.314;11.562;2023-02-26T23:33:51;19.70;63.30
1956;DHT22;978;48.314;11.562;2023-02-26T23:36:18;19.70;63.20
1956;DHT22;978;48.314;11.562;2023-02-26T23:38:44;19.70;63.10
1956;DHT22;978;48.314;11.562;2023-02-26T23:41:11;19.70;63.10
1956;DHT22;978;48.314;11.562;2023-02-26T23:43:38;19.70;63.10
1956;DHT22;978;48.314;11.562;2023-02-26T23:46:06;19.70;63.00
1956;DHT22;978;48.314;11.562;2023-02-26T23:48:33;19.70;62.80
1956;DHT22;978;48.314;11.562;2023-02-26T23:51:00;19.70;62.80
1956;DHT22;978;48.314;11.562;2023-02-26T23:53:27;19.70;62.70
1956;DHT22;978;48.314;11.562;2023-02-26T23:55:53;19.70;62.70
1956;DHT22;978;48.314;11.562;2023-02-26T23:58:23;19.70;62.70
